createdAt,value
2023-10-10T00:00:30.280Z,16.78
2023-10-10T00:02:56.742Z,16.69
2023-10-10T00:05:23.295Z,16.54
2023-10-10T00:07:49.631Z,16.41
2023-10-10T00:10:16.046Z,16.35
2023-10-10T00:12:42.404Z,16.38
2023-10-10T00:15:08.781Z,16.32
2023-10-10T00:17:35.216Z,16.28
2023-10-10T00:20:01.663Z,16.20
2023-10-10T00:22:28.069Z,16.20
2023-10-10T00:24:54.458Z,16.18
2023-10-10T00:27:20.785Z,16.16
2023-10-10T00:29:47.125Z,16.16
2023-10-10T00:32:13.535Z,16.04
2023-10-10T00:34:39.952Z,16.03
2023-10-10T00:37:06.310Z,15.91
2023-10-10T00:39:32.781Z,15.76
2023-10-10T00:41:59.171Z,15.75
2023-10-10T00:44:25.545Z,15.76
2023-10-10T00:46:52.009Z,15.63
2023-10-10T00:49:18.476Z,15.64
2023-10-10T00:51:44.793Z,15.59
2023-10-10T00:54:11.239Z,15.58
2023-10-10T00:56:37.658Z,15.52
2023-10-10T00:59:04.025Z,15.53
2023-10-10T01:01:30.473Z,15.56
2023-10-10T01:03:56.946Z,15.56
2023-10-10T01:06:23.426Z,15.56
2023-10-10T01:08:49.882Z,15.56
2023-10-10T01:11:17.430Z,15.59
2023-10-10T01:13:43.804Z,15.62
2023-10-10T01:16:10.199Z,15.67
2023-10-10T01:18:36.579Z,15.65
2023-10-10T01:21:02.884Z,15.66
2023-10-10T01:23:29.395Z,15.63
2023-10-10T01:25:55.910Z,15.66
2023-10-10T01:28:22.392Z,15.68
2023-10-10T01:30:48.973Z,15.77
2023-10-10T01:33:15.514Z,15.90
2023-10-10T01:35:41.905Z,15.95
2023-10-10T01:38:08.319Z,16.00
2023-10-10T01:40:34.659Z,16.07
2023-10-10T01:43:01.005Z,16.13
2023-10-10T01:45:27.362Z,16.08
2023-10-10T01:47:53.784Z,16.11
2023-10-10T01:50:20.209Z,15.98
2023-10-10T01:52:46.613Z,16.01
2023-10-10T01:55:13.042Z,16.03
2023-10-10T01:57:39.377Z,15.98
2023-10-10T02:00:05.762Z,16.05
2023-10-10T02:02:32.371Z,16.02
2023-10-10T02:04:58.860Z,16.06
2023-10-10T02:07:25.316Z,16.08
2023-10-10T02:09:51.737Z,15.98
2023-10-10T02:12:22.874Z,15.88
2023-10-10T02:14:50.035Z,15.80
2023-10-10T02:17:16.481Z,15.74
2023-10-10T02:19:42.811Z,15.65
2023-10-10T02:22:09.360Z,15.57
2023-10-10T02:24:35.858Z,15.42
2023-10-10T02:27:02.195Z,15.15
2023-10-10T02:29:28.574Z,15.14
2023-10-10T02:31:55.035Z,14.98
2023-10-10T02:34:21.373Z,14.79
2023-10-10T02:36:47.734Z,14.62
2023-10-10T02:39:14.335Z,14.54
2023-10-10T02:41:40.826Z,14.62
2023-10-10T02:44:07.293Z,14.59
2023-10-10T02:46:33.649Z,14.63
2023-10-10T02:48:59.997Z,14.70
2023-10-10T02:51:26.441Z,14.69
2023-10-10T02:53:52.864Z,14.68
2023-10-10T02:56:19.199Z,14.65
2023-10-10T02:58:45.693Z,14.63
2023-10-10T03:01:12.035Z,14.63
2023-10-10T03:03:38.524Z,14.64
2023-10-10T03:06:05.957Z,14.71
2023-10-10T03:08:32.299Z,14.86
2023-10-10T03:10:58.634Z,14.93
2023-10-10T03:13:25.009Z,15.02
2023-10-10T03:15:51.473Z,15.15
2023-10-10T03:18:17.842Z,15.19
2023-10-10T03:20:44.237Z,15.31
2023-10-10T03:23:10.790Z,15.44
2023-10-10T03:25:37.207Z,15.51
2023-10-10T03:28:03.614Z,15.55
2023-10-10T03:30:30.063Z,15.52
2023-10-10T03:32:56.435Z,15.52
2023-10-10T03:35:22.840Z,15.50
2023-10-10T03:37:49.234Z,15.32
2023-10-10T03:40:15.544Z,15.25
2023-10-10T03:42:41.896Z,15.18
2023-10-10T03:45:08.322Z,15.13
2023-10-10T03:47:34.966Z,15.19
2023-10-10T03:50:01.476Z,15.32
2023-10-10T03:52:27.837Z,15.37
2023-10-10T03:54:54.163Z,15.54
2023-10-10T03:57:20.542Z,15.64
2023-10-10T03:59:46.985Z,15.68
2023-10-10T04:02:15.856Z,15.77
2023-10-10T04:04:42.493Z,15.75
2023-10-10T04:07:08.874Z,15.60
2023-10-10T04:09:35.193Z,15.47
2023-10-10T04:12:01.558Z,15.34
2023-10-10T04:14:28.030Z,15.20
2023-10-10T04:16:54.406Z,15.25
2023-10-10T04:19:20.738Z,15.13
2023-10-10T04:21:47.066Z,14.71
2023-10-10T04:24:13.461Z,14.66
2023-10-10T04:26:39.890Z,14.62
2023-10-10T04:29:06.384Z,14.55
2023-10-10T04:31:32.709Z,14.46
2023-10-10T04:33:59.089Z,14.44
2023-10-10T04:36:25.450Z,14.10
2023-10-10T04:38:51.777Z,14.15
2023-10-10T04:41:18.170Z,14.12
2023-10-10T04:43:44.550Z,14.08
2023-10-10T04:46:10.894Z,14.07
2023-10-10T04:48:37.242Z,14.09
2023-10-10T04:51:03.633Z,14.11
2023-10-10T04:53:29.966Z,14.11
2023-10-10T04:55:56.322Z,14.14
2023-10-10T04:58:22.627Z,14.25
2023-10-10T05:00:48.939Z,14.37
2023-10-10T05:03:15.409Z,14.46
2023-10-10T05:05:41.974Z,14.47
2023-10-10T05:08:08.347Z,14.47
2023-10-10T05:55:02.671Z,14.34
2023-10-10T05:57:29.219Z,14.34
2023-10-10T05:59:55.565Z,14.36
2023-10-10T06:02:22.003Z,14.44
2023-10-10T06:04:48.422Z,14.44
2023-10-10T06:07:14.781Z,14.46
2023-10-10T06:09:41.291Z,14.34
2023-10-10T06:12:07.657Z,14.33
2023-10-10T06:14:34.023Z,14.22
2023-10-10T06:17:00.512Z,14.18
2023-10-10T06:19:26.914Z,14.03
2023-10-10T06:21:53.254Z,14.00
2023-10-10T06:24:19.889Z,14.05
2023-10-10T06:26:46.374Z,14.11
2023-10-10T06:29:12.800Z,14.13
2023-10-10T06:31:57.566Z,14.15
2023-10-10T06:34:42.353Z,14.17
2023-10-10T06:37:27.499Z,14.18
2023-10-10T06:40:12.229Z,14.24
2023-10-10T06:42:58.075Z,14.24
2023-10-10T06:45:44.453Z,14.30
2023-10-10T06:48:29.749Z,14.27
2023-10-10T06:51:14.507Z,14.30
2023-10-10T06:53:59.587Z,14.39
2023-10-10T06:56:44.430Z,14.44
2023-10-10T06:59:29.388Z,14.45
2023-10-10T07:02:14.390Z,14.50
2023-10-10T07:04:59.275Z,14.50
2023-10-10T07:07:44.667Z,14.47
2023-10-10T07:10:29.511Z,14.36
2023-10-10T07:13:14.450Z,14.46
2023-10-10T07:15:59.553Z,14.53
2023-10-10T07:18:44.667Z,14.67
2023-10-10T07:21:29.914Z,14.76
2023-10-10T07:24:15.423Z,14.92
2023-10-10T07:27:00.598Z,15.08
2023-10-10T07:29:45.654Z,15.22
2023-10-10T07:32:31.078Z,15.28
2023-10-10T07:35:16.152Z,15.37
2023-10-10T07:38:01.287Z,15.52
2023-10-10T07:40:46.259Z,15.67
2023-10-10T07:43:31.150Z,15.77
2023-10-10T07:46:16.184Z,15.86
2023-10-10T07:49:01.326Z,16.04
2023-10-10T07:51:46.235Z,16.22
2023-10-10T07:54:31.516Z,16.40
2023-10-10T07:57:16.621Z,16.51
2023-10-10T08:00:01.810Z,16.60
2023-10-10T08:02:46.871Z,16.74
2023-10-10T08:05:31.831Z,16.86
2023-10-10T08:08:16.754Z,17.00
2023-10-10T08:11:01.846Z,17.14
2023-10-10T08:13:46.762Z,17.25
2023-10-10T08:16:31.887Z,17.34
2023-10-10T08:19:17.138Z,17.40
2023-10-10T08:22:04.223Z,17.39
2023-10-10T08:24:49.342Z,17.50
2023-10-10T08:27:36.354Z,17.52
2023-10-10T08:30:21.432Z,17.40
2023-10-10T08:33:06.477Z,17.55
2023-10-10T08:35:51.798Z,17.60
2023-10-10T08:38:37.042Z,17.65
2023-10-10T08:41:22.279Z,17.69
2023-10-10T08:44:07.633Z,17.71
2023-10-10T08:46:52.701Z,17.74
2023-10-10T08:49:37.865Z,17.66
2023-10-10T08:52:22.979Z,17.70
2023-10-10T08:55:09.141Z,17.66
2023-10-10T08:57:54.345Z,17.78
2023-10-10T09:00:39.401Z,17.82
2023-10-10T09:03:24.920Z,17.86
2023-10-10T09:06:10.238Z,17.96
2023-10-10T09:08:55.338Z,18.07
2023-10-10T09:11:40.188Z,18.16
2023-10-10T09:14:25.094Z,18.25
2023-10-10T09:17:10.271Z,18.28
2023-10-10T09:19:55.223Z,18.36
2023-10-10T09:22:40.173Z,18.41
2023-10-10T09:25:25.303Z,18.47
2023-10-10T09:28:10.103Z,18.57
2023-10-10T09:30:55.300Z,18.69
2023-10-10T09:33:40.265Z,18.76
2023-10-10T09:36:25.169Z,18.83
2023-10-10T09:39:10.533Z,18.91
2023-10-10T09:41:55.968Z,19.02
2023-10-10T09:44:41.122Z,19.05
2023-10-10T09:47:26.139Z,19.03
2023-10-10T09:50:11.243Z,19.05
2023-10-10T09:52:56.300Z,19.21
2023-10-10T09:55:41.617Z,19.23
2023-10-10T09:58:26.752Z,19.23
2023-10-10T10:01:11.958Z,19.33
2023-10-10T10:03:57.210Z,19.41
2023-10-10T10:06:52.540Z,19.50
2023-10-10T10:09:47.306Z,19.62
2023-10-10T10:12:32.705Z,19.64
2023-10-10T10:15:18.042Z,19.64
2023-10-10T10:18:03.170Z,19.72
2023-10-10T10:20:48.363Z,19.68
2023-10-10T10:23:33.552Z,19.76
2023-10-10T10:26:18.579Z,19.78
2023-10-10T10:29:03.720Z,19.86
2023-10-10T10:31:48.537Z,19.82
2023-10-10T10:34:33.726Z,19.87
2023-10-10T10:37:18.770Z,19.88
2023-10-10T10:40:03.761Z,19.86
2023-10-10T10:42:48.780Z,19.87
2023-10-10T10:45:33.705Z,19.94
2023-10-10T10:48:18.570Z,20.02
2023-10-10T10:51:03.517Z,20.08
2023-10-10T10:53:48.607Z,20.21
2023-10-10T10:56:33.388Z,20.29
2023-10-10T10:59:18.304Z,20.43
2023-10-10T11:02:03.564Z,20.47
2023-10-10T11:04:48.569Z,20.53
2023-10-10T11:07:33.685Z,20.59
2023-10-10T11:10:18.576Z,20.63
2023-10-10T11:13:03.886Z,20.63
2023-10-10T11:15:48.901Z,20.65
2023-10-10T11:18:33.851Z,20.75
2023-10-10T11:21:19.169Z,20.80
2023-10-10T11:24:04.061Z,20.85
2023-10-10T11:26:49.098Z,20.89
2023-10-10T11:29:33.906Z,20.93
2023-10-10T11:32:18.893Z,21.04
2023-10-10T11:35:03.971Z,21.05
2023-10-10T11:37:49.206Z,21.09
2023-10-10T11:40:34.244Z,21.15
2023-10-10T11:43:19.220Z,21.22
2023-10-10T11:46:04.522Z,21.39
2023-10-10T11:48:49.453Z,21.44
2023-10-10T11:51:34.668Z,21.48
2023-10-10T11:54:19.430Z,21.53
2023-10-10T11:57:04.493Z,21.58
2023-10-10T11:59:49.333Z,21.65
2023-10-10T12:02:34.326Z,21.68
2023-10-10T12:05:19.721Z,21.71
2023-10-10T12:08:04.535Z,21.68
2023-10-10T12:10:49.609Z,21.77
2023-10-10T12:13:35.824Z,21.72
2023-10-10T12:16:21.111Z,21.78
2023-10-10T12:19:06.053Z,21.81
2023-10-10T12:21:51.142Z,21.88
2023-10-10T12:24:36.293Z,21.83
2023-10-10T12:27:21.257Z,21.97
2023-10-10T12:30:06.603Z,22.08
2023-10-10T12:32:51.597Z,22.10
2023-10-10T12:35:36.717Z,22.23
2023-10-10T12:38:21.610Z,22.27
2023-10-10T12:41:06.752Z,22.36
2023-10-10T12:43:51.904Z,22.34
2023-10-10T12:46:36.950Z,22.33
2023-10-10T12:49:22.115Z,22.28
2023-10-10T12:52:07.192Z,22.34
2023-10-10T12:54:52.332Z,22.32
2023-10-10T12:57:37.595Z,22.30
2023-10-10T13:00:22.521Z,22.30
2023-10-10T13:03:07.848Z,22.38
2023-10-10T13:05:52.747Z,22.27
2023-10-10T13:08:37.740Z,22.27
2023-10-10T13:11:22.445Z,22.39
2023-10-10T13:14:07.641Z,22.46
2023-10-10T13:16:52.639Z,22.52
2023-10-10T13:19:37.901Z,22.32
2023-10-10T13:22:23.045Z,22.30
2023-10-10T13:25:08.036Z,22.30
2023-10-10T13:27:53.302Z,22.29
2023-10-10T13:30:38.518Z,22.43
2023-10-10T13:33:23.660Z,22.54
2023-10-10T13:36:08.723Z,22.60
2023-10-10T13:38:53.902Z,22.59
2023-10-10T13:41:39.086Z,22.56
2023-10-10T13:44:24.101Z,22.51
2023-10-10T13:47:09.329Z,22.48
2023-10-10T13:49:54.275Z,22.41
2023-10-10T13:52:39.241Z,22.32
2023-10-10T13:55:24.001Z,22.26
2023-10-10T13:58:09.055Z,22.13
2023-10-10T14:00:54.301Z,22.08
2023-10-10T14:03:39.280Z,22.02
2023-10-10T14:06:24.320Z,21.95
2023-10-10T14:09:09.233Z,21.90
2023-10-10T14:11:56.105Z,21.82
2023-10-10T14:14:42.979Z,21.79
2023-10-10T14:17:28.258Z,21.75
2023-10-10T14:20:13.175Z,21.70
2023-10-10T14:22:58.212Z,21.67
2023-10-10T14:25:43.106Z,21.65
2023-10-10T14:28:28.248Z,21.64
2023-10-10T14:31:13.385Z,21.65
2023-10-10T14:33:58.488Z,21.54
2023-10-10T14:36:46.347Z,21.47
2023-10-10T14:39:31.491Z,21.45
2023-10-10T14:42:16.356Z,21.40
2023-10-10T14:45:01.368Z,21.33
2023-10-10T14:47:46.171Z,21.30
2023-10-10T14:50:31.313Z,21.22
2023-10-10T14:53:16.349Z,21.11
2023-10-10T14:56:01.389Z,21.02
2023-10-10T14:58:46.375Z,20.91
2023-10-10T15:01:31.300Z,20.80
2023-10-10T15:04:16.618Z,20.69
2023-10-10T15:07:01.798Z,20.57
2023-10-10T15:09:46.944Z,20.48
2023-10-10T15:12:32.037Z,20.36
2023-10-10T15:15:17.190Z,20.28
2023-10-10T15:18:02.480Z,20.16
2023-10-10T15:20:47.902Z,20.09
2023-10-10T15:23:33.151Z,20.01
2023-10-10T15:26:18.127Z,19.93
2023-10-10T15:29:03.421Z,19.86
2023-10-10T15:31:48.236Z,19.82
2023-10-10T15:34:33.284Z,19.76
2023-10-10T15:37:18.183Z,19.74
2023-10-10T15:40:03.180Z,19.66
2023-10-10T15:42:48.200Z,19.63
2023-10-10T15:45:33.132Z,19.52
2023-10-10T15:48:18.530Z,19.46
2023-10-10T15:51:03.484Z,19.38
2023-10-10T15:53:48.534Z,19.26
2023-10-10T15:56:33.531Z,19.19
2023-10-10T15:59:18.853Z,19.12
2023-10-10T16:02:04.424Z,18.99
2023-10-10T16:04:49.638Z,18.97
2023-10-10T16:07:34.408Z,18.88
2023-10-10T16:10:19.466Z,18.70
2023-10-10T16:13:04.595Z,18.62
2023-10-10T16:15:49.649Z,18.56
2023-10-10T16:18:35.679Z,18.51
2023-10-10T16:21:20.765Z,18.40
2023-10-10T16:24:05.732Z,18.33
2023-10-10T16:26:50.862Z,18.28
2023-10-10T16:29:36.257Z,18.25
2023-10-10T16:32:21.565Z,18.25
2023-10-10T16:35:06.622Z,18.13
2023-10-10T16:37:51.638Z,18.02
2023-10-10T16:40:38.015Z,17.92
2023-10-10T16:43:24.553Z,17.90
2023-10-10T16:46:09.745Z,17.92
2023-10-10T16:48:55.070Z,17.92
2023-10-10T16:51:40.003Z,17.85
2023-10-10T16:54:25.156Z,17.79
2023-10-10T16:57:10.142Z,17.67
2023-10-10T16:59:55.410Z,17.61
2023-10-10T17:02:40.506Z,17.56
2023-10-10T17:05:25.735Z,17.47
2023-10-10T17:08:10.658Z,17.28
2023-10-10T17:10:55.837Z,17.18
2023-10-10T17:13:40.931Z,17.27
2023-10-10T17:16:25.910Z,17.31
2023-10-10T17:19:17.382Z,17.37
2023-10-10T17:22:02.928Z,17.35
2023-10-10T17:24:47.869Z,17.43
2023-10-10T17:27:32.865Z,17.51
2023-10-10T17:30:17.820Z,17.55
2023-10-10T17:33:03.162Z,17.63
2023-10-10T17:35:48.111Z,17.64
2023-10-10T17:38:33.092Z,17.73
2023-10-10T17:41:18.105Z,17.82
2023-10-10T17:44:03.067Z,17.87
2023-10-10T17:46:48.402Z,17.80
2023-10-10T17:49:33.613Z,17.76
2023-10-10T17:52:18.505Z,17.71
2023-10-10T17:55:03.713Z,17.61
2023-10-10T17:57:48.647Z,17.55
2023-10-10T18:00:33.528Z,17.49
2023-10-10T18:03:18.668Z,17.45
2023-10-10T18:06:03.985Z,17.30
2023-10-10T18:08:49.026Z,17.18
2023-10-10T18:11:33.946Z,17.00
2023-10-10T18:14:19.406Z,17.02
2023-10-10T18:17:04.710Z,16.99
2023-10-10T18:19:49.820Z,17.01
2023-10-10T18:22:34.833Z,16.98
2023-10-10T18:25:19.724Z,16.91
2023-10-10T18:28:04.686Z,16.86
2023-10-10T18:30:49.896Z,16.84
2023-10-10T18:33:35.154Z,16.75
2023-10-10T18:36:19.993Z,16.63
2023-10-10T18:39:05.183Z,16.54
2023-10-10T18:41:50.154Z,16.50
2023-10-10T18:44:35.584Z,16.45
2023-10-10T18:47:20.382Z,16.38
2023-10-10T18:50:05.386Z,16.34
2023-10-10T18:52:50.313Z,16.29
2023-10-10T18:55:35.225Z,16.30
2023-10-10T18:58:20.404Z,16.25
2023-10-10T19:01:05.512Z,16.25
2023-10-10T19:03:50.735Z,16.24
2023-10-10T19:06:35.632Z,16.32
2023-10-10T19:09:20.780Z,16.40
2023-10-10T19:12:05.570Z,16.34
2023-10-10T19:14:50.638Z,16.43
2023-10-10T19:17:35.453Z,16.50
2023-10-10T19:20:20.369Z,16.56
2023-10-10T19:23:05.578Z,16.56
2023-10-10T19:25:50.456Z,16.59
2023-10-10T19:28:35.625Z,16.58
2023-10-10T19:31:20.792Z,16.62
2023-10-10T19:34:05.850Z,16.58
2023-10-10T19:36:50.871Z,16.57
2023-10-10T19:39:36.945Z,16.45
2023-10-10T19:42:21.812Z,16.47
2023-10-10T19:45:22.337Z,16.39
2023-10-10T19:48:10.165Z,16.50
2023-10-10T19:50:55.310Z,16.56
2023-10-10T19:53:40.651Z,16.66
2023-10-10T19:56:25.814Z,16.75
2023-10-10T19:59:10.830Z,16.82
2023-10-10T20:01:55.897Z,16.84
2023-10-10T20:04:40.922Z,16.79
2023-10-10T20:07:25.825Z,16.81
2023-10-10T20:10:10.916Z,16.91
2023-10-10T20:12:56.127Z,16.90
2023-10-10T20:15:41.402Z,16.86
2023-10-10T20:18:26.475Z,16.89
2023-10-10T20:21:11.873Z,16.85
2023-10-10T20:23:57.004Z,16.81
2023-10-10T20:26:42.135Z,16.78
2023-10-10T20:29:27.193Z,16.72
2023-10-10T20:32:12.330Z,16.68
2023-10-10T20:34:57.394Z,16.63
2023-10-10T20:37:42.355Z,16.57
2023-10-10T20:40:27.583Z,16.53
2023-10-10T20:43:12.355Z,16.46
2023-10-10T20:45:57.334Z,16.44
2023-10-10T20:48:42.509Z,16.35
2023-10-10T20:51:27.423Z,16.33
2023-10-10T20:54:12.557Z,16.31
2023-10-10T20:56:57.785Z,16.31
2023-10-10T20:59:42.818Z,16.27
2023-10-10T21:02:27.591Z,16.26
2023-10-10T21:05:12.821Z,16.16
2023-10-10T21:07:57.529Z,16.19
2023-10-10T21:10:42.967Z,16.11
2023-10-10T21:13:27.731Z,16.12
2023-10-10T21:16:12.747Z,16.02
2023-10-10T21:18:57.915Z,15.95
2023-10-10T21:21:43.002Z,15.89
2023-10-10T21:24:28.221Z,15.90
2023-10-10T21:27:13.174Z,15.94
2023-10-10T21:29:58.254Z,15.90
2023-10-10T21:32:43.636Z,15.93
2023-10-10T21:35:28.589Z,15.91
2023-10-10T21:38:13.766Z,15.92
2023-10-10T21:40:58.851Z,15.97
2023-10-10T21:43:44.081Z,15.99
2023-10-10T21:46:29.201Z,15.98
2023-10-10T21:49:14.309Z,15.91
2023-10-10T21:51:59.053Z,15.82
2023-10-10T21:54:44.284Z,15.84
2023-10-10T21:57:29.170Z,15.82
2023-10-10T22:00:14.338Z,15.82
2023-10-10T22:02:59.292Z,15.78
2023-10-10T22:05:44.307Z,15.82
2023-10-10T22:08:29.262Z,15.77
2023-10-10T22:11:14.223Z,15.75
2023-10-10T22:13:59.389Z,15.68
2023-10-10T22:16:44.191Z,15.64
2023-10-10T22:19:29.174Z,15.64
2023-10-10T22:22:14.295Z,15.66
2023-10-10T22:24:59.137Z,15.73
2023-10-10T22:27:44.297Z,15.78
2023-10-10T22:30:29.373Z,15.84
2023-10-10T22:33:14.482Z,15.82
2023-10-10T22:35:59.479Z,15.86
2023-10-10T22:38:44.542Z,15.86
2023-10-10T22:41:29.444Z,15.83
2023-10-10T22:44:14.374Z,15.70
2023-10-10T22:46:59.486Z,15.67
2023-10-10T22:49:44.412Z,15.61
2023-10-10T22:52:29.621Z,15.63
2023-10-10T22:55:14.569Z,15.68
2023-10-10T22:58:02.082Z,15.68
2023-10-10T23:00:47.348Z,15.63
2023-10-10T23:03:32.645Z,15.58
2023-10-10T23:06:17.431Z,15.53
2023-10-10T23:09:02.640Z,15.48
2023-10-10T23:11:47.672Z,15.52
2023-10-10T23:14:32.637Z,15.50
2023-10-10T23:17:17.710Z,15.36
2023-10-10T23:20:02.760Z,15.35
2023-10-10T23:22:47.853Z,15.34
2023-10-10T23:25:33.079Z,15.29
2023-10-10T23:28:17.886Z,15.33
2023-10-10T23:31:02.935Z,15.34
2023-10-10T23:33:47.941Z,15.30
2023-10-10T23:36:32.810Z,15.31
2023-10-10T23:39:18.166Z,15.25
2023-10-10T23:42:03.301Z,15.23
2023-10-10T23:44:48.290Z,15.24
2023-10-10T23:47:33.183Z,15.18
2023-10-10T23:50:18.220Z,15.14
2023-10-10T23:53:03.350Z,15.06
2023-10-10T23:55:48.605Z,15.00
2023-10-10T23:58:33.657Z,15.02
